Atlanta, Georgia
Traffic Map
Current Weather Conditions
Atlanta, Georgia
Overcast Drizzle
Overcast
61°
Feels Like: 61°
Wind Chill: 61° Ceiling: 300
Heat Index: 61° Visibility: 0.25mi
Dew Point: 61° Wind: 6mph
Humidity: 100% Direction: 130° (SE)
Pressure: 30.36in Gusts: 0mph
Raw Report DataKATL 191552Z 13005KT 1/4SM R09R/P6000FT -DZ BR OVC003 16/16 A3036 RMK AO2 SFC VIS 1 1/4 SLP278 TWRINC P0000 T01610161
Traffic Incident Summary
Active as of:
Severity:
Category:
InformationThere was an issue retrieving the traffic information for this location. Please try a different location or try again shortly.
Advertisements